Time;durP1;ratioP1;P1;durP2;ratioP2;P2;SDS_P1;SDS_P2;PMS_P1;PMS_P2;Temp;Humidity;BMP_temperature;BMP_pressure;BME280_temperature;BME280_humidity;BME280_pressure;Samples;Min_cycle;Max_cycle;Signal;HPM_P1;HPM_P2
2023/07/30 00:01:36;;;;;;;2.88;1.90;;;25.10;56.80;;;;;;5130098;27;45507;-68
2023/07/30 00:04:03;;;;;;;4.65;2.28;;;25.10;56.80;;;;;;5129936;27;45197;-68
2023/07/30 00:06:30;;;;;;;3.63;1.90;;;25.10;56.80;;;;;;5130347;27;45293;-68
2023/07/30 00:08:56;;;;;;;2.97;1.98;;;25.10;56.70;;;;;;5130328;27;45413;-67
2023/07/30 00:11:24;;;;;;;2.65;1.60;;;25.10;56.80;;;;;;5129989;27;45343;-69
2023/07/30 00:13:52;;;;;;;2.80;2.00;;;25.10;56.80;;;;;;5129569;27;45394;-68
2023/07/30 00:16:18;;;;;;;4.15;2.20;;;25.10;56.80;;;;;;5129942;27;45396;-67
2023/07/30 00:18:45;;;;;;;4.70;2.00;;;25.00;56.70;;;;;;5127593;27;45317;-67
2023/07/30 00:21:12;;;;;;;2.63;1.95;;;25.00;56.80;;;;;;5129739;27;45629;-67
2023/07/30 00:23:39;;;;;;;3.38;1.92;;;25.00;56.70;;;;;;5129545;27;45363;-69
2023/07/30 00:26:06;;;;;;;2.00;1.80;;;25.00;56.60;;;;;;5129749;27;45324;-67
2023/07/30 00:28:32;;;;;;;2.30;1.70;;;25.00;56.70;;;;;;5129989;27;45309;-68
2023/07/30 00:31:01;;;;;;;2.53;1.75;;;25.00;56.60;;;;;;5129526;27;46546;-68
2023/07/30 00:33:27;;;;;;;3.15;1.58;;;25.00;57.30;;;;;;5129415;27;45332;-68
2023/07/30 00:35:54;;;;;;;2.40;1.65;;;25.00;56.60;;;;;;5129938;27;45329;-68
2023/07/30 00:38:21;;;;;;;1.70;1.23;;;25.00;56.50;;;;;;5129636;27;45624;-68
2023/07/30 00:40:48;;;;;;;2.08;1.58;;;25.00;56.60;;;;;;5129275;27;45382;-67
2023/07/30 00:43:15;;;;;;;2.58;1.73;;;25.00;56.70;;;;;;5129262;27;45343;-67
2023/07/30 00:45:43;;;;;;;2.42;1.70;;;25.00;56.60;;;;;;5129374;27;45277;-67
2023/07/30 00:48:11;;;;;;;2.28;1.50;;;24.90;56.70;;;;;;5129503;27;45493;-67
2023/07/30 00:50:39;;;;;;;3.28;1.65;;;25.00;56.70;;;;;;5129489;27;45346;-68
2023/07/30 00:53:06;;;;;;;2.90;1.77;;;24.90;56.50;;;;;;5129090;27;45338;-68
2023/07/30 00:55:33;;;;;;;2.67;1.52;;;24.90;56.50;;;;;;5129375;27;45303;-67
2023/07/30 00:58:00;;;;;;;3.03;2.00;;;25.00;56.60;;;;;;5129195;27;45308;-67
2023/07/30 01:00:28;;;;;;;1.85;1.38;;;24.90;56.60;;;;;;5129072;27;46750;-67
2023/07/30 01:02:55;;;;;;;2.70;1.60;;;24.90;56.60;;;;;;5129224;27;45315;-67
2023/07/30 01:05:23;;;;;;;2.25;1.50;;;24.90;56.50;;;;;;5129019;27;45329;-67
2023/07/30 01:07:50;;;;;;;2.08;1.70;;;24.90;56.60;;;;;;5129363;27;45358;-67
2023/07/30 01:10:17;;;;;;;2.75;1.77;;;24.90;56.60;;;;;;5128973;27;45423;-68
2023/07/30 01:12:44;;;;;;;1.98;1.55;;;24.90;56.70;;;;;;5129171;27;45183;-69
2023/07/30 01:15:11;;;;;;;1.63;1.30;;;24.90;56.60;;;;;;5129034;27;45341;-67
2023/07/30 01:17:37;;;;;;;1.73;1.60;;;24.90;56.50;;;;;;5129162;27;45314;-68
2023/07/30 01:20:06;;;;;;;2.30;1.60;;;24.90;56.70;;;;;;5128835;27;45489;-68
2023/07/30 01:22:34;;;;;;;1.98;1.67;;;24.80;56.60;;;;;;5128663;27;45405;-67
2023/07/30 01:25:01;;;;;;;2.20;1.60;;;24.80;56.60;;;;;;5128784;27;45268;-68
2023/07/30 01:27:29;;;;;;;3.13;1.50;;;24.80;56.50;;;;;;5129108;27;45293;-67
2023/07/30 01:29:58;;;;;;;2.28;1.55;;;24.80;56.60;;;;;;5128538;27;46401;-66
2023/07/30 01:32:26;;;;;;;2.13;1.55;;;24.80;56.60;;;;;;5128573;27;45194;-66
2023/07/30 01:34:53;;;;;;;3.42;1.63;;;24.80;56.60;;;;;;5128626;27;45320;-66
2023/07/30 01:37:20;;;;;;;2.15;1.70;;;24.80;56.60;;;;;;5128808;27;45472;-68
2023/07/30 01:39:49;;;;;;;1.90;1.45;;;24.80;56.60;;;;;;5128501;27;45317;-68
2023/07/30 01:42:15;;;;;;;2.95;1.40;;;24.80;56.60;;;;;;5128593;27;45260;-68
2023/07/30 01:44:42;;;;;;;1.50;1.40;;;24.80;56.50;;;;;;5128017;27;45284;-67
2023/07/30 01:47:09;;;;;;;1.63;1.30;;;24.80;56.50;;;;;;5128722;27;45491;-67
2023/07/30 01:49:36;;;;;;;1.67;1.40;;;24.80;56.50;;;;;;5128200;27;46383;-68
2023/07/30 01:52:03;;;;;;;1.55;1.23;;;24.80;56.50;;;;;;5128271;27;45328;-67
2023/07/30 01:54:30;;;;;;;1.52;1.40;;;24.70;56.50;;;;;;5128020;27;45290;-67
2023/07/30 01:56:58;;;;;;;2.10;1.30;;;24.70;56.50;;;;;;5128715;27;45320;-67
2023/07/30 01:59:25;;;;;;;1.52;1.38;;;24.70;56.50;;;;;;5127443;27;46344;-67
2023/07/30 02:01:52;;;;;;;1.40;1.30;;;24.70;56.50;;;;;;5128151;27;45341;-67
2023/07/30 02:04:19;;;;;;;2.28;1.55;;;24.70;56.50;;;;;;5128343;27;45396;-68
2023/07/30 02:06:45;;;;;;;1.73;1.50;;;24.70;56.50;;;;;;5128656;27;45201;-68
2023/07/30 02:09:12;;;;;;;2.08;1.23;;;24.70;56.40;;;;;;5127985;27;46287;-67
2023/07/30 02:11:39;;;;;;;1.50;1.40;;;24.70;56.50;;;;;;5128221;27;45313;-68
2023/07/30 02:14:07;;;;;;;1.40;1.20;;;24.70;56.50;;;;;;5128324;27;45242;-67
2023/07/30 02:16:34;;;;;;;1.33;1.10;;;24.70;56.50;;;;;;5128182;27;45300;-67
2023/07/30 02:19:01;;;;;;;1.30;1.20;;;24.70;56.60;;;;;;5127948;27;45530;-68
2023/07/30 02:21:30;;;;;;;1.90;1.42;;;24.70;56.50;;;;;;5127947;27;45249;-67
2023/07/30 02:23:56;;;;;;;2.08;1.45;;;24.70;56.50;;;;;;5127837;27;45381;-68
2023/07/30 02:26:23;;;;;;;1.67;1.45;;;24.70;56.50;;;;;;5125575;27;45471;-69
2023/07/30 02:28:50;;;;;;;1.30;1.20;;;24.70;56.60;;;;;;5127219;27;46451;-66
2023/07/30 02:31:18;;;;;;;1.48;1.38;;;24.60;56.50;;;;;;5127858;27;45284;-68
2023/07/30 02:33:51;;;;;;;1.42;1.27;;;24.60;56.50;;;;;;5125266;27;45382;-68
2023/07/30 02:36:18;;;;;;;2.85;1.40;;;24.60;56.50;;;;;;5128010;27;45552;-68
2023/07/30 02:38:45;;;;;;;1.77;1.10;;;24.60;56.50;;;;;;5127594;27;45402;-68
2023/07/30 02:41:12;;;;;;;2.88;1.58;;;24.60;56.60;;;;;;5127742;27;45282;-68
2023/07/30 02:43:39;;;;;;;1.30;1.20;;;24.60;56.70;;;;;;5127605;27;45292;-68
2023/07/30 02:46:06;;;;;;;1.30;1.20;;;24.50;56.50;;;;;;5127880;27;45172;-68
2023/07/30 02:48:35;;;;;;;2.35;1.40;;;24.50;56.60;;;;;;5127512;27;45483;-68
2023/07/30 02:51:01;;;;;;;1.30;1.20;;;24.50;56.80;;;;;;5127314;27;45382;-68
2023/07/30 02:53:29;;;;;;;1.73;1.48;;;24.50;56.70;;;;;;5127241;27;45340;-68
2023/07/30 02:55:56;;;;;;;1.20;1.17;;;24.50;56.80;;;;;;5127600;27;45516;-68
2023/07/30 02:58:23;;;;;;;1.23;1.10;;;24.50;56.70;;;;;;5127457;27;45502;-68
2023/07/30 03:00:50;;;;;;;1.70;1.30;;;24.50;56.70;;;;;;5127333;27;45306;-68
2023/07/30 03:03:17;;;;;;;1.92;1.33;;;24.50;56.70;;;;;;5127615;27;45398;-68
2023/07/30 03:05:45;;;;;;;1.15;1.00;;;24.50;56.70;;;;;;5127453;27;45497;-68
2023/07/30 03:08:13;;;;;;;1.30;1.20;;;24.50;56.70;;;;;;5127101;27;45453;-68
2023/07/30 03:10:39;;;;;;;1.33;1.23;;;24.50;56.70;;;;;;5126275;27;45348;-66
2023/07/30 03:13:06;;;;;;;1.27;1.15;;;24.50;56.70;;;;;;5127498;27;45259;-68
2023/07/30 03:15:33;;;;;;;1.20;1.10;;;24.50;56.70;;;;;;5127077;27;45423;-68
2023/07/30 03:18:00;;;;;;;1.33;1.10;;;24.50;56.70;;;;;;5126970;27;46634;-68
2023/07/30 03:20:27;;;;;;;1.20;1.10;;;24.50;56.60;;;;;;5126918;27;45145;-68
2023/07/30 03:22:55;;;;;;;1.33;1.23;;;24.50;56.70;;;;;;5126953;27;45299;-68
2023/07/30 03:25:22;;;;;;;1.13;1.00;;;24.50;56.70;;;;;;5127207;27;45402;-68
2023/07/30 03:27:49;;;;;;;1.58;1.13;;;24.50;56.60;;;;;;5126811;27;45379;-69
2023/07/30 03:30:15;;;;;;;1.00;1.00;;;24.50;56.70;;;;;;5127124;27;45200;-68
2023/07/30 03:32:54;;;;;;;1.45;1.35;;;24.40;56.60;;;;;;5127177;27;45268;-68
2023/07/30 03:35:21;;;;;;;1.08;1.08;;;24.40;56.60;;;;;;5127151;27;45364;-68
2023/07/30 03:37:48;;;;;;;1.17;1.08;;;24.40;56.50;;;;;;5126663;27;46324;-68
2023/07/30 03:40:16;;;;;;;1.35;1.10;;;24.40;56.60;;;;;;5127053;27;45432;-68
2023/07/30 03:42:43;;;;;;;1.27;1.17;;;24.40;57.30;;;;;;5126721;27;45268;-68
2023/07/30 03:45:10;;;;;;;1.88;1.02;;;24.40;56.70;;;;;;5127031;27;45471;-68
2023/07/30 03:47:37;;;;;;;2.63;1.30;;;24.40;56.70;;;;;;5126473;27;45315;-68
2023/07/30 03:50:04;;;;;;;1.08;1.08;;;24.40;56.60;;;;;;5126836;27;45400;-68
2023/07/30 03:52:31;;;;;;;1.85;1.30;;;24.40;56.60;;;;;;5126464;27;45280;-70
2023/07/30 03:54:58;;;;;;;1.35;1.00;;;24.40;56.60;;;;;;5127167;27;45290;-67
2023/07/30 03:57:26;;;;;;;1.63;1.08;;;24.40;56.60;;;;;;5126416;27;45531;-69
2023/07/30 03:59:53;;;;;;;1.35;1.25;;;24.30;56.50;;;;;;5126303;27;45484;-68
2023/07/30 04:02:20;;;;;;;1.20;1.10;;;24.30;56.50;;;;;;5126349;27;45327;-67
2023/07/30 04:04:49;;;;;;;1.10;1.10;;;24.30;56.50;;;;;;5126295;27;45262;-68
2023/07/30 04:07:16;;;;;;;0.95;0.90;;;24.30;56.60;;;;;;5126187;27;45745;-68
2023/07/30 04:09:43;;;;;;;1.33;1.17;;;24.30;56.60;;;;;;5126323;27;45398;-65
2023/07/30 04:12:10;;;;;;;0.93;0.93;;;24.30;56.60;;;;;;5126499;27;45480;-69
2023/07/30 04:14:38;;;;;;;1.30;1.20;;;24.30;56.60;;;;;;5126832;27;45306;-67
2023/07/30 04:17:05;;;;;;;1.77;1.38;;;24.30;56.60;;;;;;5126281;27;45469;-68
2023/07/30 04:19:32;;;;;;;1.35;1.20;;;24.30;56.60;;;;;;5126245;27;45430;-67
2023/07/30 04:21:59;;;;;;;1.17;1.08;;;24.20;56.60;;;;;;5127513;27;45309;-66
2023/07/30 04:24:26;;;;;;;1.77;1.00;;;24.20;56.50;;;;;;5130089;27;45397;-67
2023/07/30 04:26:53;;;;;;;1.40;1.13;;;24.20;56.70;;;;;;5129752;27;46623;-66
2023/07/30 04:29:20;;;;;;;1.20;1.10;;;24.20;56.60;;;;;;5129859;27;45304;-66
2023/07/30 04:31:48;;;;;;;1.67;1.17;;;24.20;56.50;;;;;;5130143;27;45278;-66
2023/07/30 04:34:16;;;;;;;1.20;0.95;;;24.20;56.60;;;;;;5129749;27;45316;-66
2023/07/30 04:36:42;;;;;;;2.78;1.48;;;24.20;56.60;;;;;;5129614;27;47260;-67
2023/07/30 04:39:10;;;;;;;1.25;1.10;;;24.20;56.50;;;;;;5129574;27;45238;-66
2023/07/30 04:41:37;;;;;;;1.17;1.08;;;24.20;56.50;;;;;;5129727;27;45410;-66
2023/07/30 04:44:04;;;;;;;0.95;0.93;;;24.20;56.50;;;;;;5129785;27;45540;-66
2023/07/30 04:46:33;;;;;;;1.02;0.82;;;24.20;56.50;;;;;;5129329;27;46459;-66
2023/07/30 04:49:02;;;;;;;1.15;1.02;;;24.20;56.50;;;;;;5129018;27;45252;-66
2023/07/30 04:51:29;;;;;;;1.00;0.90;;;24.20;56.40;;;;;;5129375;27;45369;-66
2023/07/30 04:53:56;;;;;;;1.30;1.20;;;24.20;56.50;;;;;;5129304;27;45402;-68
2023/07/30 04:56:25;;;;;;;1.10;1.05;;;24.20;56.50;;;;;;5129211;27;47310;-67
2023/07/30 04:58:52;;;;;;;1.40;1.25;;;24.20;56.50;;;;;;5129335;27;45399;-66
2023/07/30 05:01:18;;;;;;;1.25;1.10;;;24.20;56.50;;;;;;5129382;27;45310;-67
2023/07/30 05:03:45;;;;;;;1.85;1.00;;;24.20;56.40;;;;;;5129401;27;45307;-67
2023/07/30 05:06:13;;;;;;;1.13;1.10;;;24.20;56.50;;;;;;5129537;27;45474;-66
2023/07/30 05:08:40;;;;;;;1.40;1.30;;;24.20;56.40;;;;;;5126662;27;45200;-66
2023/07/30 05:11:07;;;;;;;1.42;1.15;;;24.20;56.50;;;;;;5129313;27;45343;-66
2023/07/30 05:13:34;;;;;;;1.58;0.90;;;24.20;56.40;;;;;;5129155;27;45279;-67
2023/07/30 05:16:01;;;;;;;1.90;0.90;;;24.20;56.40;;;;;;5129070;27;46409;-66
2023/07/30 05:18:28;;;;;;;0.98;0.88;;;24.20;56.40;;;;;;5129132;27;45193;-67
2023/07/30 05:20:55;;;;;;;1.27;1.17;;;24.20;56.40;;;;;;5129231;27;45285;-68
2023/07/30 05:23:24;;;;;;;1.25;1.00;;;24.20;56.40;;;;;;5129312;27;45420;-68
2023/07/30 05:25:50;;;;;;;1.13;1.00;;;24.20;56.30;;;;;;5128897;27;45743;-68
2023/07/30 05:28:17;;;;;;;1.15;1.05;;;24.20;56.40;;;;;;5129158;27;45287;-68
2023/07/30 05:30:44;;;;;;;1.08;1.00;;;24.20;56.40;;;;;;5128911;27;45275;-67
2023/07/30 05:33:11;;;;;;;0.95;0.85;;;24.20;56.40;;;;;;5128234;27;45409;-70
2023/07/30 05:35:38;;;;;;;0.80;0.80;;;24.20;56.40;;;;;;5128134;27;45531;-68
2023/07/30 05:38:05;;;;;;;1.13;0.93;;;24.20;56.40;;;;;;5128676;27;45374;-68
2023/07/30 05:40:34;;;;;;;0.80;0.80;;;24.20;56.40;;;;;;5129024;27;45267;-68
2023/07/30 05:43:01;;;;;;;0.90;0.90;;;24.20;56.40;;;;;;5128899;27;45255;-68
2023/07/30 05:45:28;;;;;;;1.13;1.02;;;24.20;56.30;;;;;;5128306;27;46583;-69
2023/07/30 05:47:55;;;;;;;1.38;1.10;;;24.20;56.20;;;;;;5128716;27;45471;-69
2023/07/30 05:50:22;;;;;;;1.88;1.05;;;24.20;56.20;;;;;;5128663;27;45211;-67
2023/07/30 05:52:48;;;;;;;1.15;0.80;;;24.30;56.20;;;;;;5128435;27;45282;-68
2023/07/30 05:55:15;;;;;;;1.13;1.02;;;24.30;56.20;;;;;;5128235;27;46948;-67
2023/07/30 05:57:43;;;;;;;1.00;1.00;;;24.30;56.10;;;;;;5128234;27;45311;-67
2023/07/30 06:00:11;;;;;;;0.98;0.88;;;24.30;56.10;;;;;;5128600;27;45430;-67
2023/07/30 06:02:38;;;;;;;1.10;1.00;;;24.30;56.00;;;;;;5125877;27;45342;-67
2023/07/30 06:05:05;;;;;;;0.80;0.70;;;24.30;56.00;;;;;;5127879;27;47641;-67
2023/07/30 06:07:32;;;;;;;0.90;0.90;;;24.30;56.00;;;;;;5128413;27;45653;-67
2023/07/30 06:09:59;;;;;;;1.00;1.00;;;24.30;55.90;;;;;;5128143;27;45393;-67
2023/07/30 06:12:26;;;;;;;1.23;1.13;;;24.40;55.90;;;;;;5129542;27;45509;-67
2023/07/30 06:14:54;;;;;;;0.80;0.80;;;24.40;55.90;;;;;;5128023;27;45279;-68
2023/07/30 06:17:21;;;;;;;1.58;0.93;;;24.40;55.90;;;;;;5128246;27;45267;-66
2023/07/30 06:19:48;;;;;;;0.80;0.80;;;24.40;55.80;;;;;;5127643;27;45426;-66
2023/07/30 06:22:15;;;;;;;0.80;0.80;;;24.40;55.70;;;;;;5128257;27;45322;-67
2023/07/30 06:24:41;;;;;;;1.10;1.00;;;24.40;55.70;;;;;;5127995;27;45310;-68
2023/07/30 06:27:09;;;;;;;0.82;0.80;;;24.40;55.70;;;;;;5127838;27;45262;-66
2023/07/30 06:29:36;;;;;;;0.95;0.90;;;24.40;55.60;;;;;;5128084;27;45213;-67
2023/07/30 06:32:05;;;;;;;0.82;0.82;;;24.50;55.60;;;;;;5128042;27;45422;-67
2023/07/30 06:34:32;;;;;;;1.05;0.85;;;24.50;55.50;;;;;;5127673;27;46326;-66
2023/07/30 06:36:59;;;;;;;1.23;1.02;;;24.50;55.50;;;;;;5127963;27;45243;-67
2023/07/30 06:39:26;;;;;;;0.93;0.93;;;24.50;55.50;;;;;;5128009;27;45324;-68
2023/07/30 06:41:53;;;;;;;0.80;0.80;;;24.50;55.50;;;;;;5128038;27;45339;-67
2023/07/30 06:44:20;;;;;;;1.00;1.00;;;24.50;55.40;;;;;;5127448;27;46893;-67
2023/07/30 06:46:46;;;;;;;1.00;1.00;;;24.50;55.40;;;;;;5127632;27;45267;-66
2023/07/30 06:49:15;;;;;;;1.20;1.10;;;24.50;55.40;;;;;;5127704;27;45239;-67
2023/07/30 06:51:41;;;;;;;1.15;0.93;;;24.50;55.40;;;;;;5128221;27;45356;-67
2023/07/30 06:54:08;;;;;;;1.55;0.85;;;24.50;55.40;;;;;;5126315;27;45467;-67
2023/07/30 06:56:35;;;;;;;1.30;1.20;;;24.50;55.50;;;;;;5127556;27;45363;-67
2023/07/30 06:59:03;;;;;;;1.17;0.70;;;24.50;55.60;;;;;;5127668;27;45287;-67
2023/07/30 07:01:30;;;;;;;1.10;1.00;;;24.50;55.40;;;;;;5127615;27;45184;-67
2023/07/30 07:03:56;;;;;;;2.20;0.95;;;24.50;55.40;;;;;;5126552;27;46327;-67
2023/07/30 07:06:25;;;;;;;1.08;1.08;;;24.60;55.40;;;;;;5127405;27;45308;-66
2023/07/30 07:08:51;;;;;;;1.13;0.85;;;24.60;55.30;;;;;;5127381;27;45377;-67
2023/07/30 07:11:18;;;;;;;0.90;0.90;;;24.60;55.30;;;;;;5127416;27;45306;-66
2023/07/30 07:13:45;;;;;;;0.90;0.73;;;24.60;55.20;;;;;;5127181;27;46337;-66
2023/07/30 07:16:12;;;;;;;0.88;0.85;;;24.70;55.30;;;;;;5127187;27;45404;-67
2023/07/30 07:18:39;;;;;;;1.10;0.77;;;24.70;55.20;;;;;;5127328;27;45376;-67
2023/07/30 07:21:06;;;;;;;0.88;0.80;;;24.70;55.20;;;;;;5127424;27;45396;-66
2023/07/30 07:23:34;;;;;;;0.93;0.93;;;24.80;55.10;;;;;;5126935;27;46404;-67
2023/07/30 07:26:01;;;;;;;0.98;0.85;;;24.80;55.10;;;;;;5127715;27;45301;-67
2023/07/30 07:28:27;;;;;;;1.80;0.85;;;24.80;55.10;;;;;;5127068;27;45370;-67
2023/07/30 07:30:55;;;;;;;1.02;0.90;;;24.80;55.10;;;;;;5127350;27;45221;-67
2023/07/30 07:33:22;;;;;;;0.95;0.93;;;24.80;55.10;;;;;;5126808;27;46399;-67
2023/07/30 07:35:49;;;;;;;1.30;0.98;;;24.80;55.00;;;;;;5127033;27;45333;-67
2023/07/30 07:38:16;;;;;;;1.63;0.90;;;24.90;55.00;;;;;;5126947;27;45313;-67
2023/07/30 07:40:44;;;;;;;1.23;1.13;;;24.90;55.00;;;;;;5127141;27;45470;-67
2023/07/30 07:43:11;;;;;;;1.10;1.00;;;24.90;55.10;;;;;;5126462;27;46718;-69
2023/07/30 07:45:38;;;;;;;1.58;0.90;;;24.90;55.10;;;;;;5126779;27;45356;-68
2023/07/30 07:48:05;;;;;;;1.05;1.00;;;25.00;55.10;;;;;;5126513;27;45238;-68
2023/07/30 07:50:32;;;;;;;1.08;0.98;;;25.00;55.00;;;;;;5127133;27;45432;-68
2023/07/30 07:52:59;;;;;;;1.25;0.85;;;25.00;55.00;;;;;;5126482;27;45478;-70
2023/07/30 07:55:25;;;;;;;0.93;0.88;;;25.00;54.90;;;;;;5126806;27;45373;-69
2023/07/30 07:57:54;;;;;;;2.53;0.88;;;25.10;54.90;;;;;;5129205;27;45275;-68
2023/07/30 08:00:21;;;;;;;0.98;0.80;;;25.10;54.90;;;;;;5130828;27;45410;-67
2023/07/30 08:02:48;;;;;;;1.23;1.13;;;25.10;54.90;;;;;;5130053;27;46925;-67
2023/07/30 08:05:15;;;;;;;1.80;0.70;;;25.10;54.90;;;;;;5130032;27;46082;-67
2023/07/30 08:07:42;;;;;;;1.05;0.90;;;25.10;54.90;;;;;;5130321;27;45266;-67
2023/07/30 08:10:10;;;;;;;0.85;0.85;;;25.20;55.00;;;;;;5130759;27;45308;-67
2023/07/30 08:12:37;;;;;;;2.20;0.90;;;25.20;54.90;;;;;;5130410;27;45378;-66
2023/07/30 08:15:06;;;;;;;0.80;0.80;;;25.20;54.90;;;;;;5129696;27;45400;-66
2023/07/30 08:17:33;;;;;;;1.02;0.90;;;25.20;54.90;;;;;;5130404;27;45167;-66
2023/07/30 08:20:00;;;;;;;0.80;0.80;;;25.30;55.00;;;;;;5130146;27;45398;-66
2023/07/30 08:22:27;;;;;;;2.45;1.08;;;25.30;54.90;;;;;;5129892;27;45296;-69
2023/07/30 08:24:54;;;;;;;1.45;1.05;;;25.30;54.90;;;;;;5129890;27;45396;-68
2023/07/30 08:27:21;;;;;;;4.13;1.10;;;25.30;54.90;;;;;;5130143;27;45367;-68
2023/07/30 08:29:47;;;;;;;1.10;1.00;;;25.30;54.90;;;;;;5130136;27;45301;-68
2023/07/30 08:32:16;;;;;;;0.90;0.90;;;25.30;54.90;;;;;;5129272;27;46392;-68
2023/07/30 08:34:43;;;;;;;1.55;0.70;;;25.30;54.90;;;;;;5129403;27;45360;-69
2023/07/30 08:37:09;;;;;;;0.90;0.82;;;25.40;55.00;;;;;;5130111;27;45361;-68
2023/07/30 08:39:36;;;;;;;1.10;1.00;;;25.40;55.00;;;;;;5130013;27;45426;-68
2023/07/30 08:42:03;;;;;;;0.90;0.88;;;25.40;55.00;;;;;;5129654;27;45272;-68
2023/07/30 08:44:30;;;;;;;0.80;0.80;;;25.50;55.00;;;;;;5129259;27;45340;-69
2023/07/30 08:46:57;;;;;;;0.70;0.70;;;25.40;54.90;;;;;;5129985;27;45289;-68
2023/07/30 08:49:28;;;;;;;0.70;0.70;;;25.50;54.90;;;;;;5129908;27;45346;-68
2023/07/30 08:51:55;;;;;;;0.80;0.80;;;25.50;54.90;;;;;;5129515;27;46725;-68
2023/07/30 08:54:21;;;;;;;1.02;0.85;;;25.50;54.90;;;;;;5128930;27;46022;-68
2023/07/30 08:56:48;;;;;;;2.90;1.10;;;25.50;54.90;;;;;;5129459;27;45319;-66
2023/07/30 08:59:15;;;;;;;0.80;0.80;;;25.50;54.90;;;;;;5129607;27;45314;-66
2023/07/30 09:01:42;;;;;;;0.85;0.80;;;25.60;54.90;;;;;;5129579;27;45418;-68
2023/07/30 09:04:09;;;;;;;1.02;0.88;;;25.60;54.90;;;;;;5129220;27;45137;-68
2023/07/30 09:06:38;;;;;;;1.08;0.98;;;25.60;54.90;;;;;;5129274;27;45364;-67
2023/07/30 09:09:05;;;;;;;1.00;1.00;;;25.60;54.80;;;;;;5128196;27;45426;-67
2023/07/30 09:11:32;;;;;;;0.70;0.70;;;25.60;54.80;;;;;;5129091;27;45385;-67
2023/07/30 09:14:01;;;;;;;0.80;0.80;;;25.60;54.80;;;;;;5129118;27;45254;-67
2023/07/30 09:16:28;;;;;;;1.85;0.90;;;25.70;54.80;;;;;;5129210;27;45388;-66
2023/07/30 09:18:55;;;;;;;0.80;0.80;;;25.70;54.70;;;;;;5129198;27;45394;-67
2023/07/30 09:21:30;;;;;;;0.93;0.93;;;25.70;54.70;;;;;;5129045;27;45324;-68
2023/07/30 09:24:03;;;;;;;0.70;0.70;;;25.70;54.60;;;;;;5128898;27;45382;-66
2023/07/30 09:26:30;;;;;;;0.70;0.70;;;25.80;54.70;;;;;;5128846;27;45346;-67
2023/07/30 09:28:57;;;;;;;0.80;0.80;;;25.80;54.60;;;;;;5129272;27;45369;-67
2023/07/30 09:31:24;;;;;;;1.00;0.88;;;25.80;54.50;;;;;;5128737;27;46374;-67
2023/07/30 09:33:51;;;;;;;1.05;0.98;;;25.90;54.60;;;;;;5128728;27;45318;-67
2023/07/30 09:36:19;;;;;;;1.00;0.93;;;25.90;54.60;;;;;;5129065;27;45396;-68
2023/07/30 09:38:46;;;;;;;0.70;0.70;;;25.90;54.50;;;;;;5129089;27;45374;-68
2023/07/30 09:41:15;;;;;;;0.80;0.80;;;26.00;54.50;;;;;;5128702;27;45361;-69
2023/07/30 09:43:41;;;;;;;0.93;0.93;;;26.00;54.60;;;;;;5128762;27;45319;-69
2023/07/30 09:46:08;;;;;;;1.35;1.25;;;26.00;54.50;;;;;;5128988;27;45253;-68
2023/07/30 09:48:35;;;;;;;0.80;0.80;;;26.00;54.50;;;;;;5128859;27;45290;-68
2023/07/30 09:51:03;;;;;;;0.80;0.80;;;26.00;54.40;;;;;;5125846;27;45381;-68
2023/07/30 09:53:34;;;;;;;2.08;0.90;;;26.10;54.40;;;;;;5128089;27;45339;-68
2023/07/30 09:56:01;;;;;;;1.00;0.90;;;26.10;54.30;;;;;;5128708;27;45403;-69
2023/07/30 09:58:29;;;;;;;1.33;0.95;;;26.10;54.30;;;;;;5128454;27;45295;-67
2023/07/30 10:00:57;;;;;;;0.88;0.88;;;26.10;54.30;;;;;;5128357;27;45280;-68
2023/07/30 10:03:23;;;;;;;2.17;0.80;;;26.20;54.20;;;;;;5128224;27;45364;-68
2023/07/30 10:05:50;;;;;;;0.73;0.73;;;26.20;54.20;;;;;;5128209;27;45306;-68
2023/07/30 10:08:20;;;;;;;1.00;0.85;;;26.20;54.80;;;;;;5128265;27;45339;-67
2023/07/30 10:10:47;;;;;;;0.80;0.80;;;26.30;54.10;;;;;;5127674;27;46378;-68
2023/07/30 10:13:14;;;;;;;4.43;0.93;;;26.30;54.00;;;;;;5128014;27;45331;-70
2023/07/30 10:15:42;;;;;;;8.45;1.00;;;26.20;54.80;;;;;;5128593;27;45311;-71
2023/07/30 10:18:09;;;;;;;11.85;1.40;;;26.30;55.90;;;;;;5128253;27;45318;-68
2023/07/30 10:20:37;;;;;;;3.47;1.13;;;26.30;55.90;;;;;;5127859;27;45460;-66
2023/07/30 10:23:05;;;;;;;7.03;0.90;;;26.40;55.80;;;;;;5128167;27;45384;-67
2023/07/30 10:25:43;;;;;;;3.72;1.23;;;26.50;55.70;;;;;;5127807;27;45343;-68
2023/07/30 10:28:10;;;;;;;1.15;1.05;;;26.50;55.30;;;;;;5128612;27;45335;-70
2023/07/30 10:30:37;;;;;;;4.68;1.05;;;26.60;54.80;;;;;;5128107;27;45621;-71
2023/07/30 10:33:05;;;;;;;2.67;1.10;;;26.60;54.50;;;;;;5127964;27;45352;-66
2023/07/30 10:35:42;;;;;;;3.67;1.80;;;26.70;54.40;;;;;;5128671;27;45290;-68
2023/07/30 10:38:16;;;;;;;2.63;2.20;;;26.80;54.30;;;;;;5128390;27;45359;-69
2023/07/30 10:40:43;;;;;;;3.67;1.58;;;26.90;53.90;;;;;;5127874;27;45137;-68
2023/07/30 10:43:16;;;;;;;46.97;3.88;;;26.90;53.80;;;;;;5127508;27;45528;-70
2023/07/30 10:45:50;;;;;;;15.18;1.73;;;27.00;54.00;;;;;;5127703;27;45238;-66
2023/07/30 10:48:18;;;;;;;6.20;1.70;;;27.10;54.50;;;;;;5127751;27;45336;-66
2023/07/30 10:50:48;;;;;;;3.30;1.25;;;27.20;54.50;;;;;;5127991;27;45396;-70
2023/07/30 10:53:15;;;;;;;3.78;1.30;;;27.30;54.30;;;;;;5127866;27;45292;-70
2023/07/30 10:55:42;;;;;;;1.85;1.10;;;27.40;54.10;;;;;;5127914;27;45378;-67
2023/07/30 10:58:09;;;;;;;5.30;1.33;;;27.50;53.80;;;;;;5126337;27;45199;-69
2023/07/30 11:00:38;;;;;;;4.57;1.42;;;27.50;53.60;;;;;;5120977;27;46268;-65
2023/07/30 11:03:05;;;;;;;3.47;1.38;;;27.60;54.00;;;;;;5119524;27;45525;-67
2023/07/30 11:05:33;;;;;;;6.45;1.40;;;27.60;53.80;;;;;;5106903;27;45338;-67
2023/07/30 11:08:00;;;;;;;3.55;1.20;;;27.60;53.70;;;;;;5113620;27;45439;-68
2023/07/30 11:10:27;;;;;;;4.80;1.50;;;27.70;54.00;;;;;;5122674;27;45465;-69
2023/07/30 11:12:54;;;;;;;8.93;1.92;;;27.70;51.40;;;;;;5120506;27;45486;-70
2023/07/30 11:15:21;;;;;;;3.03;1.52;;;27.70;49.40;;;;;;5127995;27;45360;-74
2023/07/30 11:17:49;;;;;;;4.07;2.78;;;27.50;48.20;;;;;;5126840;27;45494;-76
2023/07/30 11:20:26;;;;;;;4.35;3.30;;;27.30;48.20;;;;;;5112956;27;45775;-75
2023/07/30 11:22:55;;;;;;;5.35;1.80;;;27.10;48.40;;;;;;5116257;27;45520;-73
2023/07/30 11:25:22;;;;;;;2.22;1.50;;;27.00;48.60;;;;;;5114012;27;45448;-73
2023/07/30 11:27:49;;;;;;;2.95;1.65;;;26.80;48.60;;;;;;5119665;27;45136;-73
2023/07/30 11:30:15;;;;;;;1.67;1.30;;;26.70;48.20;;;;;;5118406;27;46249;-74
2023/07/30 11:32:44;;;;;;;1.30;1.20;;;26.60;48.10;;;;;;5108990;27;45404;-75
2023/07/30 11:35:11;;;;;;;1.25;1.15;;;26.60;48.20;;;;;;5122791;27;45519;-73
2023/07/30 11:37:39;;;;;;;2.10;1.63;;;26.50;47.80;;;;;;5126798;27;45463;-73
2023/07/30 11:40:09;;;;;;;2.63;1.40;;;26.50;47.20;;;;;;5113300;27;47543;-74
2023/07/30 11:42:35;;;;;;;1.85;1.20;;;26.40;47.00;;;;;;5114938;27;45331;-73
2023/07/30 11:45:17;;;;;;;1.33;1.23;;;26.40;46.60;;;;;;5124425;27;45491;-75
2023/07/30 11:47:44;;;;;;;1.30;1.20;;;26.30;47.10;;;;;;5117646;27;45370;-74
2023/07/30 11:50:11;;;;;;;0.98;0.95;;;26.30;47.20;;;;;;5112751;27;45523;-74
2023/07/30 11:52:51;;;;;;;2.55;1.33;;;26.20;47.30;;;;;;5108726;27;45379;-75
2023/07/30 11:55:20;;;;;;;1.42;1.20;;;26.10;46.90;;;;;;5120474;27;45371;-73
2023/07/30 11:57:47;;;;;;;3.50;1.45;;;26.00;47.30;;;;;;5125978;27;45256;-72
2023/07/30 12:00:14;;;;;;;1.42;1.33;;;26.00;47.20;;;;;;5123627;27;45574;-73
2023/07/30 12:02:41;;;;;;;2.78;1.00;;;25.90;46.90;;;;;;5125143;27;45429;-73
2023/07/30 12:05:10;;;;;;;1.65;1.35;;;26.00;47.60;;;;;;5120000;27;45432;-72
2023/07/30 12:07:40;;;;;;;1.90;1.75;;;26.00;47.30;;;;;;5125912;27;45364;-73
2023/07/30 12:10:09;;;;;;;3.75;1.65;;;26.00;47.10;;;;;;5112677;27;45451;-74
2023/07/30 12:12:37;;;;;;;3.10;1.63;;;26.00;47.50;;;;;;5123009;27;45381;-74
2023/07/30 12:15:11;;;;;;;1.92;1.42;;;26.00;47.50;;;;;;5110775;27;45260;-74
2023/07/30 12:17:38;;;;;;;1.00;1.00;;;26.00;47.90;;;;;;5117022;27;45662;-72
2023/07/30 12:20:06;;;;;;;1.83;1.60;;;26.00;47.90;;;;;;5112751;27;45446;-73
2023/07/30 12:22:34;;;;;;;1.73;1.15;;;26.00;48.00;;;;;;5123060;27;45368;-72
2023/07/30 12:25:01;;;;;;;3.03;1.40;;;25.90;47.60;;;;;;5110252;27;45312;-73
2023/07/30 12:27:28;;;;;;;1.20;1.00;;;25.90;47.90;;;;;;5120219;27;45375;-73
2023/07/30 12:29:56;;;;;;;4.43;2.05;;;25.90;47.80;;;;;;5114331;27;46413;-73
2023/07/30 12:32:24;;;;;;;3.22;2.00;;;25.90;47.90;;;;;;5122000;27;45370;-73
2023/07/30 12:34:51;;;;;;;5.40;2.30;;;25.90;47.90;;;;;;5120619;27;45390;-75
2023/07/30 12:37:18;;;;;;;2.47;1.67;;;26.00;47.70;;;;;;5113279;27;45370;-73
2023/07/30 12:39:45;;;;;;;1.88;1.50;;;26.00;47.60;;;;;;5115831;27;46428;-75
2023/07/30 12:42:11;;;;;;;1.98;1.50;;;26.00;47.80;;;;;;5125763;27;45315;-75
2023/07/30 12:44:38;;;;;;;1.30;1.20;;;26.00;47.60;;;;;;5112695;27;45545;-75
2023/07/30 12:47:07;;;;;;;2.63;1.30;;;26.10;47.70;;;;;;5125184;27;45378;-75